Time;durP1;ratioP1;P1;durP2;ratioP2;P2;SDS_P1;SDS_P2;PMS_P1;PMS_P2;Temp;Humidity;BMP_temperature;BMP_pressure;BME280_temperature;BME280_humidity;BME280_pressure;Samples;Min_cycle;Max_cycle;Signal;HPM_P1;HPM_P2
2023/06/14 00:00:35;;;;;;;6.60;1.97;;;;;;;15.74;78.68;101283.03;5154741;27;20456;-68
2023/06/14 00:03:01;;;;;;;9.83;2.07;;;;;;;15.70;78.75;101288.31;5154638;27;20460;-68
2023/06/14 00:05:29;;;;;;;7.13;2.37;;;;;;;15.67;78.92;101280.78;5154651;27;20485;-69
2023/06/14 00:07:56;;;;;;;5.17;1.20;;;;;;;15.64;78.77;101275.94;5154597;27;20520;-68
2023/06/14 00:10:23;;;;;;;5.53;1.97;;;;;;;15.63;79.69;101286.03;5154808;27;20784;-68
2023/06/14 00:12:51;;;;;;;6.67;1.70;;;;;;;15.53;80.82;101286.31;5154552;27;20528;-68
2023/06/14 00:15:17;;;;;;;5.83;2.00;;;;;;;15.56;81.67;101287.59;5154884;27;20457;-69
2023/06/14 00:17:47;;;;;;;7.30;2.03;;;;;;;15.53;81.35;101288.22;5158542;27;20564;-68
2023/06/14 00:20:13;;;;;;;5.50;1.50;;;;;;;15.48;80.73;101282.91;5158186;27;20434;-68
2023/06/14 00:22:40;;;;;;;6.83;1.77;;;;;;;15.41;81.42;101288.06;5158216;27;20442;-69
2023/06/14 00:25:07;;;;;;;6.30;1.30;;;;;;;15.34;82.19;101281.13;5158445;27;20793;-68
2023/06/14 00:27:34;;;;;;;4.90;1.57;;;;;;;15.34;82.90;101286.56;5158109;27;20440;-68
2023/06/14 00:30:02;;;;;;;5.87;1.77;;;;;;;15.34;82.44;101286.56;5158444;27;20525;-68
2023/06/14 00:32:29;;;;;;;6.10;1.53;;;;;;;15.31;81.98;101289.94;5158351;27;20815;-68
2023/06/14 00:34:55;;;;;;;5.73;1.80;;;;;;;15.28;82.87;101287.84;5158143;27;20501;-68
2023/06/14 00:37:22;;;;;;;5.30;1.60;;;;;;;15.20;83.18;101291.34;5158119;27;20438;-68
2023/06/14 00:39:49;;;;;;;6.17;2.07;;;;;;;15.16;83.23;101293.09;5157876;27;21046;-68
2023/06/14 00:42:25;;;;;;;5.87;1.97;;;;;;;15.18;82.64;101293.56;5158172;27;20437;-68
2023/06/14 00:44:51;;;;;;;6.93;2.03;;;;;;;15.17;83.16;101294.69;5158068;27;20804;-69
2023/06/14 00:47:20;;;;;;;6.10;1.63;;;;;;;15.08;82.83;101291.91;5157998;27;20445;-68
2023/06/14 00:49:48;;;;;;;6.20;1.70;;;;;;;15.08;83.69;101302.84;5158003;27;20868;-68
2023/06/14 00:52:16;;;;;;;5.80;1.40;;;;;;;15.04;83.98;101298.31;5157583;27;20470;-68
2023/06/14 00:54:43;;;;;;;6.93;2.30;;;;;;;15.09;84.33;101298.19;5157739;27;20493;-68
2023/06/14 00:57:10;;;;;;;7.50;1.90;;;;;;;15.13;83.80;101296.44;5157502;27;20433;-69
2023/06/14 00:59:42;;;;;;;6.73;2.10;;;;;;;15.10;83.78;101295.16;5157701;27;20567;-68
2023/06/14 01:02:09;;;;;;;6.07;2.13;;;;;;;15.08;83.74;101304.75;5157699;27;20924;-68
2023/06/14 01:04:38;;;;;;;6.10;2.10;;;;;;;15.10;84.34;101302.53;5157569;27;20457;-68
2023/06/14 01:07:22;;;;;;;7.10;2.13;;;;;;;15.10;84.24;101294.34;5157563;27;20935;-68
2023/06/14 01:09:59;;;;;;;6.17;2.20;;;;;;;15.04;85.60;101295.59;5157677;27;20418;-68
2023/06/14 01:12:36;;;;;;;6.07;1.90;;;;;;;15.02;85.25;101292.38;5157586;27;20470;-68
2023/06/14 01:15:04;;;;;;;5.40;1.60;;;;;;;15.00;83.43;101295.41;5157439;27;20501;-68
2023/06/14 01:17:32;;;;;;;6.73;1.60;;;;;;;14.95;81.61;101300.19;5157258;27;20473;-68
2023/06/14 01:20:02;;;;;;;8.40;1.97;;;;;;;14.93;80.47;101297.00;5157365;27;20449;-70
2023/06/14 01:22:29;;;;;;;6.87;2.30;;;;;;;14.94;82.67;101302.13;5157016;27;20448;-68
2023/06/14 01:24:57;;;;;;;17.67;2.47;;;;;;;14.88;83.34;101303.38;5157466;27;20481;-67
2023/06/14 01:27:32;;;;;;;6.47;2.30;;;;;;;14.95;84.41;101302.94;5156794;27;20433;-68
2023/06/14 01:30:03;;;;;;;6.30;2.30;;;;;;;14.84;84.39;101302.41;5157202;27;20510;-68
2023/06/14 01:32:30;;;;;;;7.00;2.40;;;;;;;14.85;84.14;101299.34;5156872;27;20983;-67
2023/06/14 01:34:57;;;;;;;6.40;2.00;;;;;;;14.82;85.47;101293.69;5157306;27;20453;-67
2023/06/14 01:37:24;;;;;;;5.83;2.33;;;;;;;14.81;85.58;101287.44;5156699;27;20473;-68
2023/06/14 01:39:51;;;;;;;8.73;2.77;;;;;;;14.74;85.69;101287.09;5156942;27;20477;-67
2023/06/14 01:42:20;;;;;;;6.77;2.30;;;;;;;14.76;86.03;101284.06;5156893;27;20485;-67
2023/06/14 01:44:48;;;;;;;6.60;2.00;;;;;;;14.70;85.83;101283.38;5156936;27;20457;-67
2023/06/14 01:47:15;;;;;;;5.73;1.80;;;;;;;14.61;86.06;101287.97;5156836;27;20441;-68
2023/06/14 01:49:42;;;;;;;7.50;2.30;;;;;;;14.62;85.88;101286.84;5156828;27;20467;-67
2023/06/14 01:52:09;;;;;;;6.07;1.80;;;;;;;14.53;86.52;101280.53;5156644;27;20808;-68
2023/06/14 01:54:41;;;;;;;5.90;1.80;;;;;;;14.58;86.13;101286.66;5156625;27;20461;-67
2023/06/14 01:57:08;;;;;;;7.33;2.27;;;;;;;14.46;87.20;101285.59;5156642;27;20432;-67
2023/06/14 01:59:36;;;;;;;6.03;1.60;;;;;;;14.48;86.47;101291.53;5156209;27;20549;-67
2023/06/14 02:02:03;;;;;;;6.87;2.30;;;;;;;14.32;87.42;101291.09;5156540;27;20522;-68
2023/06/14 02:04:30;;;;;;;6.73;2.03;;;;;;;14.30;86.73;101294.13;5156492;27;20635;-68
2023/06/14 02:06:57;;;;;;;6.30;1.90;;;;;;;14.29;86.46;101297.16;5156414;27;20525;-68
2023/06/14 02:09:24;;;;;;;8.00;2.60;;;;;;;14.28;86.79;101301.00;5156480;27;20536;-68
2023/06/14 02:11:51;;;;;;;6.20;2.17;;;;;;;14.18;86.83;101302.03;5156675;27;20476;-68
2023/06/14 02:14:18;;;;;;;6.40;2.50;;;;;;;14.07;87.74;101297.94;5155985;27;20485;-67
2023/06/14 02:16:48;;;;;;;6.90;1.80;;;;;;;14.08;88.32;101303.09;5156318;27;20434;-68
2023/06/14 02:19:15;;;;;;;5.60;2.00;;;;;;;14.00;88.55;101297.56;5156370;27;20471;-68
2023/06/14 02:21:42;;;;;;;6.47;2.30;;;;;;;14.01;87.74;101301.88;5156147;27;20525;-67
2023/06/14 02:24:08;;;;;;;9.40;2.37;;;;;;;13.84;88.44;101303.31;5155764;27;20497;-67
2023/06/14 02:26:35;;;;;;;7.00;2.43;;;;;;;13.75;88.96;101309.78;5156174;27;20546;-68
2023/06/14 02:29:02;;;;;;;16.37;2.50;;;;;;;13.71;89.25;101309.59;5155732;27;20437;-68
2023/06/14 02:31:28;;;;;;;10.93;2.67;;;;;;;13.67;89.10;101300.41;5155950;27;20505;-68
2023/06/14 02:33:56;;;;;;;10.23;2.30;;;;;;;13.60;89.35;101305.47;5155903;27;20457;-68
2023/06/14 02:36:24;;;;;;;6.53;2.33;;;;;;;13.61;89.72;101307.88;5155627;27;21044;-69
2023/06/14 02:38:50;;;;;;;6.67;2.33;;;;;;;13.66;89.60;101309.69;5155069;27;20530;-69
2023/06/14 02:41:17;;;;;;;6.30;2.30;;;;;;;13.68;89.76;101310.22;5155472;27;21022;-69
2023/06/14 02:43:44;;;;;;;7.20;2.47;;;;;;;13.63;90.38;101302.97;5155474;27;20450;-69
2023/06/14 02:46:11;;;;;;;8.70;2.47;;;;;;;13.70;89.81;101301.75;5155340;27;20442;-68
2023/06/14 02:48:37;;;;;;;7.73;2.47;;;;;;;13.68;90.28;101303.94;5155309;27;20486;-68
2023/06/14 02:51:08;;;;;;;8.50;2.60;;;;;;;13.63;90.55;101302.13;5155574;27;20943;-68
2023/06/14 02:53:34;;;;;;;11.57;2.83;;;;;;;13.60;91.41;101306.28;5155380;27;20482;-68
2023/06/14 02:56:01;;;;;;;7.80;3.13;;;;;;;13.47;91.19;101309.00;5155181;27;20542;-68
2023/06/14 02:58:28;;;;;;;7.63;2.37;;;;;;;13.51;90.67;101305.38;5155438;27;20477;-68
2023/06/14 03:00:54;;;;;;;6.30;2.37;;;;;;;13.55;91.05;101314.56;5155448;27;20465;-68
2023/06/14 03:03:21;;;;;;;9.27;2.13;;;;;;;13.51;91.83;101308.09;5155370;27;20440;-68
2023/06/14 03:05:49;;;;;;;7.03;3.00;;;;;;;13.50;90.95;101302.94;5155237;27;20879;-68
2023/06/14 03:08:19;;;;;;;6.80;2.23;;;;;;;13.45;91.49;101303.84;5155284;27;20821;-68
2023/06/14 03:10:46;;;;;;;7.13;2.17;;;;;;;13.49;91.52;101310.31;5155232;27;20441;-68
2023/06/14 03:13:12;;;;;;;10.63;3.03;;;;;;;13.41;91.43;101310.19;5155034;27;20476;-68
2023/06/14 03:15:41;;;;;;;7.87;2.90;;;;;;;13.41;91.82;101305.56;5155144;27;20465;-68
2023/06/14 03:18:09;;;;;;;7.30;2.77;;;;;;;13.40;91.64;101311.31;5155057;27;20437;-68
2023/06/14 03:20:35;;;;;;;12.70;2.53;;;;;;;13.34;91.88;101305.97;5154798;27;20495;-68
2023/06/14 03:23:03;;;;;;;6.50;2.30;;;;;;;13.31;90.33;101303.84;5155046;27;20465;-68
2023/06/14 03:25:31;;;;;;;7.00;2.87;;;;;;;13.35;89.29;101306.78;5154660;27;20514;-68
2023/06/14 03:27:58;;;;;;;6.33;2.30;;;;;;;13.39;87.65;101307.78;5154934;27;20450;-68
2023/06/14 03:30:24;;;;;;;7.87;2.50;;;;;;;13.38;86.47;101304.28;5154659;27;21002;-68
2023/06/14 03:32:51;;;;;;;6.87;2.63;;;;;;;13.38;88.58;101308.91;5154937;27;20433;-68
2023/06/14 03:35:18;;;;;;;8.93;2.77;;;;;;;13.34;90.32;101307.91;5154858;27;20454;-68
2023/06/14 03:37:45;;;;;;;7.80;3.10;;;;;;;13.40;90.29;101314.84;5154895;27;20442;-68
2023/06/14 03:40:13;;;;;;;6.00;1.97;;;;;;;13.36;90.59;101317.34;5154448;27;20513;-68
2023/06/14 03:42:41;;;;;;;6.57;2.40;;;;;;;13.40;90.26;101325.72;5154673;27;20536;-68
2023/06/14 03:45:08;;;;;;;5.97;2.20;;;;;;;13.33;90.88;101325.34;5154452;27;20457;-68
2023/06/14 03:47:35;;;;;;;8.37;3.03;;;;;;;13.30;90.64;101325.94;5154512;27;20890;-68
2023/06/14 03:50:02;;;;;;;10.50;2.57;;;;;;;13.29;90.75;101332.50;5156897;27;20464;-68
2023/06/14 03:52:29;;;;;;;6.70;2.30;;;;;;;13.29;90.89;101327.03;5159032;27;20516;-68
2023/06/14 03:54:56;;;;;;;9.20;2.70;;;;;;;13.35;91.21;101323.91;5158881;27;20457;-68
2023/06/14 03:57:22;;;;;;;6.27;2.10;;;;;;;13.35;91.51;101328.56;5158999;27;20461;-68
2023/06/14 03:59:50;;;;;;;6.03;2.33;;;;;;;13.43;91.27;101325.13;5158917;27;20576;-67
2023/06/14 04:02:17;;;;;;;6.93;2.70;;;;;;;13.57;90.57;101336.03;5158938;27;20442;-68
2023/06/14 04:04:45;;;;;;;6.53;2.20;;;;;;;13.54;90.70;101329.25;5158798;27;20805;-68
2023/06/14 04:07:12;;;;;;;6.30;2.60;;;;;;;13.71;90.56;101325.13;5158800;27;20422;-67
2023/06/14 04:09:38;;;;;;;6.50;2.37;;;;;;;13.72;90.81;101327.53;5158792;27;20458;-68
2023/06/14 04:12:06;;;;;;;8.97;2.73;;;;;;;13.73;91.63;101334.63;5160098;27;20442;-68
2023/06/14 04:14:33;;;;;;;7.23;2.93;;;;;;;13.85;91.55;101334.88;5158296;27;20462;-68
2023/06/14 04:17:01;;;;;;;9.90;4.10;;;;;;;13.87;91.93;101338.13;5158601;27;20434;-68
2023/06/14 04:19:27;;;;;;;11.63;3.50;;;;;;;14.01;91.29;101340.81;5158100;27;20569;-68
2023/06/14 04:21:54;;;;;;;7.00;2.37;;;;;;;14.10;91.10;101332.75;5158530;27;20875;-68
2023/06/14 04:24:22;;;;;;;6.13;2.13;;;;;;;14.19;91.35;101344.53;5158015;27;20971;-67
2023/06/14 04:26:51;;;;;;;6.77;2.20;;;;;;;14.13;91.71;101346.56;5158411;27;20445;-68
2023/06/14 04:29:19;;;;;;;10.20;2.70;;;;;;;14.22;92.00;101345.84;5158006;27;20455;-68
2023/06/14 04:31:47;;;;;;;10.53;3.47;;;;;;;14.23;92.32;101361.06;5158252;27;20438;-68
2023/06/14 04:34:16;;;;;;;9.20;3.73;;;;;;;14.32;91.81;101357.31;5158037;27;20505;-67
2023/06/14 04:36:43;;;;;;;16.93;3.33;;;;;;;14.43;91.27;101354.34;5158146;27;20510;-68
2023/06/14 04:39:09;;;;;;;10.07;2.60;;;;;;;14.50;91.26;101355.56;5157836;27;21071;-68
2023/06/14 04:41:36;;;;;;;6.33;2.47;;;;;;;14.58;90.97;101349.38;5158098;27;20465;-68
2023/06/14 04:44:03;;;;;;;7.90;3.17;;;;;;;14.68;90.83;101353.78;5157887;27;20477;-67
2023/06/14 04:46:31;;;;;;;10.40;3.33;;;;;;;14.78;91.25;101352.72;5158062;27;20448;-74
2023/06/14 04:49:02;;;;;;;7.40;3.40;;;;;;;14.85;90.52;101348.44;5157638;27;20434;-68
2023/06/14 04:51:30;;;;;;;9.33;3.90;;;;;;;14.96;90.84;101348.97;5158464;27;20434;-68
2023/06/14 04:53:58;;;;;;;8.13;3.77;;;;;;;15.04;90.44;101350.97;5157536;27;20897;-68
2023/06/14 04:56:26;;;;;;;7.70;2.70;;;;;;;15.03;90.69;101349.34;5157785;27;21000;-68
2023/06/14 04:58:52;;;;;;;8.77;3.37;;;;;;;15.10;90.31;101348.94;5157369;27;20534;-68
2023/06/14 05:01:19;;;;;;;8.83;3.30;;;;;;;15.13;90.30;101356.47;5157320;27;20457;-68
2023/06/14 05:03:48;;;;;;;7.93;3.07;;;;;;;15.26;89.87;101362.97;5157315;27;20494;-68
2023/06/14 05:06:15;;;;;;;8.43;3.50;;;;;;;15.33;90.17;101355.94;5157542;27;20512;-68
2023/06/14 05:08:43;;;;;;;8.60;3.33;;;;;;;15.52;89.35;101358.44;5157604;27;20510;-68
2023/06/14 05:11:09;;;;;;;5.97;2.20;;;;;;;15.62;89.71;101366.31;5157542;27;20446;-68
2023/06/14 05:13:36;;;;;;;8.70;3.10;;;;;;;15.69;89.48;101367.84;5157395;27;20465;-68
2023/06/14 05:16:03;;;;;;;8.27;3.23;;;;;;;15.70;88.58;101370.25;5157475;27;20518;-68
2023/06/14 05:18:29;;;;;;;6.03;2.43;;;;;;;15.76;88.54;101362.72;5157169;27;20494;-69
2023/06/14 05:20:56;;;;;;;7.50;3.40;;;;;;;15.83;87.42;101376.72;5157253;27;20509;-71
2023/06/14 05:23:23;;;;;;;10.70;3.30;;;;;;;15.82;85.32;101365.00;5157277;27;20477;-68
2023/06/14 05:25:51;;;;;;;7.60;3.00;;;;;;;15.89;84.77;101370.81;5157210;27;20548;-67
2023/06/14 05:28:17;;;;;;;7.70;3.27;;;;;;;15.96;85.11;101364.06;5157210;27;20521;-68
2023/06/14 05:30:44;;;;;;;8.10;3.67;;;;;;;16.02;85.18;101358.13;5156913;27;20440;-68
2023/06/14 05:33:11;;;;;;;7.60;2.70;;;;;;;16.10;85.32;101367.47;5157176;27;20445;-67
2023/06/14 05:35:38;;;;;;;7.60;3.03;;;;;;;16.10;85.30;101367.47;5157093;27;20465;-67
2023/06/14 05:38:05;;;;;;;7.83;2.87;;;;;;;16.15;85.31;101368.09;5156991;27;20441;-67
2023/06/14 05:40:32;;;;;;;6.80;2.83;;;;;;;16.23;85.93;101380.19;5156926;27;20511;-67
2023/06/14 05:43:00;;;;;;;9.00;3.73;;;;;;;16.35;85.46;101379.56;5156749;27;20460;-68
2023/06/14 05:45:26;;;;;;;7.73;3.00;;;;;;;16.51;84.21;101383.44;5156883;27;20452;-68
2023/06/14 05:47:54;;;;;;;6.33;2.53;;;;;;;16.70;84.10;101377.66;5156631;27;20486;-68
2023/06/14 05:50:21;;;;;;;9.43;2.67;;;;;;;16.86;82.31;101381.50;5156462;27;20434;-68
2023/06/14 05:52:47;;;;;;;7.30;3.23;;;;;;;17.05;81.98;101377.63;5156476;27;20958;-68
2023/06/14 05:55:14;;;;;;;8.10;3.33;;;;;;;17.19;81.02;101383.72;5156249;27;20983;-68
2023/06/14 05:57:41;;;;;;;7.13;2.90;;;;;;;17.25;79.93;101385.13;5156637;27;20863;-68
2023/06/14 06:00:14;;;;;;;8.80;3.43;;;;;;;17.28;77.87;101389.97;5156299;27;20501;-68
2023/06/14 06:02:40;;;;;;;8.83;3.10;;;;;;;17.37;78.77;101388.00;5156302;27;20414;-68
2023/06/14 06:05:08;;;;;;;6.43;2.87;;;;;;;17.45;78.58;101386.38;5156381;27;20900;-69
2023/06/14 06:07:35;;;;;;;7.50;2.87;;;;;;;17.51;78.13;101392.47;5156409;27;20472;-70
2023/06/14 06:10:01;;;;;;;9.43;3.27;;;;;;;17.59;78.60;101391.66;5156025;27;20960;-68
2023/06/14 06:12:28;;;;;;;10.10;3.63;;;;;;;17.68;78.04;101392.41;5155646;27;20879;-68
2023/06/14 06:14:55;;;;;;;8.13;3.07;;;;;;;17.78;77.18;101397.53;5155398;27;20483;-68
2023/06/14 06:17:23;;;;;;;7.87;3.80;;;;;;;17.82;76.30;101395.75;5156237;27;20433;-69
2023/06/14 06:19:49;;;;;;;7.73;2.80;;;;;;;17.82;76.36;101401.22;5156114;27;20509;-68
2023/06/14 06:22:16;;;;;;;7.40;2.70;;;;;;;17.89;76.71;101408.94;5155829;27;20973;-68
2023/06/14 06:24:43;;;;;;;6.87;2.63;;;;;;;17.88;75.93;101405.41;5155945;27;20530;-68
2023/06/14 06:27:10;;;;;;;10.10;3.30;;;;;;;17.91;75.99;101406.66;5156009;27;20438;-68
2023/06/14 06:29:37;;;;;;;9.03;3.63;;;;;;;17.87;76.41;101398.31;5155981;27;20440;-67
2023/06/14 06:32:04;;;;;;;6.80;2.83;;;;;;;17.90;76.22;101403.13;5156075;27;20528;-67
2023/06/14 06:34:31;;;;;;;7.60;3.50;;;;;;;17.98;76.52;101396.00;5155887;27;20461;-68
2023/06/14 06:36:58;;;;;;;6.70;2.43;;;;;;;18.05;75.98;101398.22;5156212;27;20438;-68
2023/06/14 06:39:25;;;;;;;6.60;2.53;;;;;;;18.11;76.84;101394.16;5155758;27;20448;-68
2023/06/14 06:41:52;;;;;;;6.83;2.60;;;;;;;18.13;76.44;101394.63;5155499;27;21018;-68
2023/06/14 06:44:19;;;;;;;7.47;2.57;;;;;;;18.15;75.75;101397.84;5155521;27;20476;-70
2023/06/14 06:46:45;;;;;;;9.83;2.80;;;;;;;18.11;75.13;101402.38;5155348;27;20944;-69
2023/06/14 06:49:12;;;;;;;9.63;3.67;;;;;;;18.11;73.77;101396.91;5155630;27;20464;-71
2023/06/14 06:51:43;;;;;;;6.80;2.83;;;;;;;18.07;72.65;101395.94;5155225;27;20928;-70
2023/06/14 06:54:09;;;;;;;7.87;2.77;;;;;;;18.04;73.50;101391.91;5155597;27;20470;-70
2023/06/14 06:56:36;;;;;;;6.77;2.50;;;;;;;18.06;74.09;101400.63;5155219;27;20486;-68
2023/06/14 06:59:03;;;;;;;8.97;3.07;;;;;;;18.11;75.05;101399.63;5155282;27;20442;-68
2023/06/14 07:01:29;;;;;;;7.70;2.83;;;;;;;18.20;75.71;101408.63;5155201;27;20474;-67
2023/06/14 07:03:56;;;;;;;7.93;2.70;;;;;;;18.27;75.37;101400.66;5155364;27;20458;-67
2023/06/14 07:06:27;;;;;;;7.47;2.80;;;;;;;18.36;75.11;101406.88;5155341;27;20533;-68
2023/06/14 07:08:54;;;;;;;6.83;2.83;;;;;;;18.49;74.29;101409.69;5155143;27;20418;-67
2023/06/14 07:11:21;;;;;;;9.37;2.63;;;;;;;18.64;74.51;101409.91;5155242;27;20437;-67
2023/06/14 07:13:48;;;;;;;11.33;3.90;;;;;;;18.79;73.65;101418.69;5155280;27;20440;-67
2023/06/14 07:16:15;;;;;;;10.03;3.37;;;;;;;18.86;73.03;101413.47;5155196;27;20437;-68
2023/06/14 07:18:41;;;;;;;8.53;2.97;;;;;;;18.94;72.57;101422.75;5154913;27;20936;-68
2023/06/14 07:21:08;;;;;;;9.50;2.93;;;;;;;18.96;72.01;101434.22;5154651;27;20484;-67
2023/06/14 07:23:35;;;;;;;8.20;3.77;;;;;;;19.02;70.67;101439.16;5154906;27;20448;-66
2023/06/14 07:26:03;;;;;;;8.30;2.97;;;;;;;18.98;69.70;101440.16;5154651;27;20488;-68
2023/06/14 07:28:30;;;;;;;7.47;2.67;;;;;;;19.08;69.61;101439.72;5154690;27;20438;-67
2023/06/14 07:30:57;;;;;;;9.23;2.90;;;;;;;19.15;69.56;101446.28;5154621;27;20974;-67
2023/06/14 07:33:23;;;;;;;5.93;2.33;;;;;;;19.28;70.14;101444.38;5155204;27;21022;-67
2023/06/14 07:35:52;;;;;;;6.77;2.37;;;;;;;19.18;69.14;101442.06;5154839;27;20497;-68
2023/06/14 07:38:18;;;;;;;7.00;2.37;;;;;;;19.23;69.63;101439.13;5154927;27;20809;-68
2023/06/14 07:40:45;;;;;;;7.77;2.73;;;;;;;19.31;70.29;101440.19;5154905;27;20481;-67
2023/06/14 07:43:13;;;;;;;8.40;2.70;;;;;;;19.41;69.69;101436.97;5154426;27;20497;-67
2023/06/14 07:45:41;;;;;;;6.07;2.47;;;;;;;19.56;71.41;101432.78;5155015;27;20462;-68
2023/06/14 07:48:07;;;;;;;7.47;2.87;;;;;;;19.64;70.23;101429.16;5154786;27;20441;-68
2023/06/14 07:50:34;;;;;;;8.00;3.07;;;;;;;19.77;69.46;101432.72;5154505;27;20525;-68
2023/06/14 07:53:01;;;;;;;10.53;3.03;;;;;;;19.79;68.25;101431.25;5154440;27;21026;-68
2023/06/14 07:55:28;;;;;;;8.20;2.90;;;;;;;19.94;68.50;101432.50;5154668;27;20536;-68
2023/06/14 07:57:55;;;;;;;5.40;2.10;;;;;;;20.06;67.94;101427.00;5154744;27;20536;-68
2023/06/14 08:00:23;;;;;;;6.23;2.30;;;;;;;20.19;66.24;101438.81;5154674;27;20569;-68
2023/06/14 08:02:50;;;;;;;7.43;2.70;;;;;;;20.25;66.06;101434.66;5154390;27;20473;-68
2023/06/14 08:05:17;;;;;;;8.50;2.90;;;;;;;20.37;64.89;101434.66;5154584;27;20569;-69
2023/06/14 08:07:43;;;;;;;7.00;2.50;;;;;;;20.39;65.70;101437.84;5154613;27;20532;-68
2023/06/14 08:10:10;;;;;;;6.53;2.67;;;;;;;20.23;65.16;101434.22;5154541;27;20441;-69
2023/06/14 08:12:37;;;;;;;5.40;1.87;;;;;;;20.22;66.96;101426.28;5154577;27;20477;-71
2023/06/14 08:15:05;;;;;;;5.90;2.23;;;;;;;20.22;66.91;101421.59;5154637;27;20465;-67
2023/06/14 08:17:33;;;;;;;6.20;2.30;;;;;;;20.23;67.58;101423.22;5154580;27;20437;-69
2023/06/14 08:19:59;;;;;;;7.47;2.33;;;;;;;20.24;66.62;101422.06;5154254;27;20528;-68
2023/06/14 08:22:27;;;;;;;7.20;2.70;;;;;;;20.39;66.93;101426.03;5154647;27;20476;-68
2023/06/14 08:24:54;;;;;;;8.00;3.00;;;;;;;20.57;65.00;101427.41;5154356;27;20810;-68
2023/06/14 08:27:22;;;;;;;7.10;2.60;;;;;;;20.70;64.40;101419.91;5154434;27;20444;-68
2023/06/14 08:29:48;;;;;;;6.43;2.23;;;;;;;20.80;62.77;101419.41;5154369;27;20434;-68
2023/06/14 08:32:15;;;;;;;6.43;2.03;;;;;;;20.97;63.49;101431.28;5153994;27;20861;-68
2023/06/14 08:34:43;;;;;;;5.77;2.20;;;;;;;21.11;63.43;101426.16;5154111;27;20464;-68
2023/06/14 08:37:10;;;;;;;6.23;2.10;;;;;;;21.20;63.49;101428.75;5156113;27;20528;-68
2023/06/14 08:39:38;;;;;;;6.47;2.13;;;;;;;21.25;60.56;101428.50;5158265;27;20456;-68
2023/06/14 08:42:06;;;;;;;6.07;1.87;;;;;;;21.37;60.33;101423.75;5157755;27;20545;-68
2023/06/14 08:44:33;;;;;;;6.60;2.30;;;;;;;21.58;61.13;101419.94;5157636;27;20465;-68
2023/06/14 08:47:03;;;;;;;6.20;2.20;;;;;;;21.77;59.21;101424.75;5157946;27;20490;-68
2023/06/14 08:49:32;;;;;;;6.07;2.10;;;;;;;21.64;57.88;101419.31;5158065;27;20535;-68
2023/06/14 08:52:02;;;;;;;5.70;1.97;;;;;;;21.57;58.60;101415.59;5157674;27;20988;-68
2023/06/14 08:54:30;;;;;;;6.50;2.17;;;;;;;21.58;58.89;101417.19;5157537;27;20838;-68
2023/06/14 08:56:57;;;;;;;6.70;2.63;;;;;;;21.57;58.15;101418.34;5157550;27;20939;-68
2023/06/14 08:59:26;;;;;;;7.03;2.10;;;;;;;21.58;57.72;101411.66;5157814;27;20448;-68
2023/06/14 09:01:54;;;;;;;6.23;2.10;;;;;;;21.60;58.98;101412.94;5157693;27;20473;-68
2023/06/14 09:04:21;;;;;;;10.87;2.67;;;;;;;21.62;58.95;101409.81;5157291;27;20927;-68
2023/06/14 09:06:52;;;;;;;9.30;2.10;;;;;;;21.67;56.73;101407.56;5157373;27;20468;-69
2023/06/14 09:09:22;;;;;;;6.80;1.90;;;;;;;21.76;56.87;101410.16;5157677;27;20457;-68
2023/06/14 09:11:50;;;;;;;5.67;2.23;;;;;;;21.85;57.20;101412.72;5157282;27;20929;-69
2023/06/14 09:14:17;;;;;;;6.23;2.10;;;;;;;21.90;54.30;101413.25;5157382;27;20494;-68
2023/06/14 09:16:43;;;;;;;6.13;1.93;;;;;;;21.91;53.75;101416.81;5157399;27;20438;-69
2023/06/14 09:19:15;;;;;;;6.23;1.93;;;;;;;21.99;55.32;101423.28;5157394;27;20536;-68
2023/06/14 09:21:41;;;;;;;7.17;1.87;;;;;;;22.20;55.60;101421.06;5157376;27;20458;-69
2023/06/14 09:24:14;;;;;;;6.90;2.37;;;;;;;22.25;54.12;101419.97;5157271;27;20533;-69
2023/06/14 09:26:42;;;;;;;6.97;1.97;;;;;;;22.36;54.42;101410.78;5157347;27;20426;-69
2023/06/14 09:29:10;;;;;;;6.50;2.03;;;;;;;22.59;54.96;101410.88;5157215;27;20442;-68
2023/06/14 09:31:37;;;;;;;6.27;1.80;;;;;;;22.83;54.28;101408.97;5157045;27;20434;-69
2023/06/14 09:34:04;;;;;;;6.30;2.30;;;;;;;23.09;54.89;101413.84;5157043;27;20580;-69
2023/06/14 09:36:32;;;;;;;5.97;2.23;;;;;;;23.14;51.74;101425.41;5157085;27;20448;-69
2023/06/14 09:39:04;;;;;;;10.80;2.40;;;;;;;23.27;53.73;101431.56;5157338;27;20468;-69
2023/06/14 09:41:34;;;;;;;5.53;1.80;;;;;;;23.15;52.12;101434.50;5156689;27;20560;-68
2023/06/14 09:44:05;;;;;;;5.87;1.93;;;;;;;23.23;51.87;101430.69;5156493;27;20465;-68
2023/06/14 09:46:32;;;;;;;6.53;1.93;;;;;;;23.35;52.35;101425.00;5156713;27;20469;-68
2023/06/14 09:48:59;;;;;;;7.03;2.57;;;;;;;23.44;51.52;101427.53;5156500;27;20438;-68
2023/06/14 09:51:26;;;;;;;7.70;2.27;;;;;;;23.56;52.32;101429.34;5156625;27;20434;-68
2023/06/14 09:53:56;;;;;;;5.80;2.20;;;;;;;23.62;50.31;101427.84;5156379;27;20944;-68
2023/06/14 09:56:29;;;;;;;5.80;1.83;;;;;;;23.73;51.48;101426.09;5156737;27;20813;-68
2023/06/14 09:58:57;;;;;;;7.20;2.10;;;;;;;23.89;51.45;101428.72;5156333;27;20508;-68
2023/06/14 10:01:27;;;;;;;5.27;1.30;;;;;;;24.07;51.17;101426.22;5156573;27;20522;-68
2023/06/14 10:04:00;;;;;;;6.40;2.20;;;;;;;24.29;51.27;101427.31;5156438;27;20445;-68
2023/06/14 10:06:29;;;;;;;6.17;1.90;;;;;;;24.23;50.18;101437.94;5156758;27;20426;-68
2023/06/14 10:08:59;;;;;;;5.10;1.60;;;;;;;24.25;49.12;101420.94;5156352;27;20434;-68
2023/06/14 10:11:26;;;;;;;5.97;1.87;;;;;;;24.23;48.39;101426.84;5157475;27;20932;-69
2023/06/14 10:13:53;;;;;;;6.50;2.17;;;;;;;24.32;48.95;101426.59;5156292;27;20430;-69
2023/06/14 10:16:24;;;;;;;5.80;2.30;;;;;;;24.39;48.90;101435.00;5156025;27;20966;-69
2023/06/14 10:18:59;;;;;;;8.63;1.77;;;;;;;24.45;48.23;101427.19;5156293;27;20505;-69
2023/06/14 10:21:33;;;;;;;5.80;2.03;;;;;;;24.47;48.47;101427.59;5156203;27;20501;-68
2023/06/14 10:24:04;;;;;;;5.17;1.80;;;;;;;24.45;48.68;101421.66;5156095;27;20510;-69
2023/06/14 10:26:30;;;;;;;5.47;2.03;;;;;;;24.48;48.58;101426.41;5155874;27;20420;-69
2023/06/14 10:28:59;;;;;;;5.57;1.73;;;;;;;24.47;49.36;101425.63;5156062;27;20434;-68
2023/06/14 10:31:42;;;;;;;6.70;2.10;;;;;;;24.46;48.31;101421.25;5156045;27;20444;-68
2023/06/14 10:34:10;;;;;;;5.77;1.73;;;;;;;24.45;48.35;101416.09;5155887;27;20540;-69
2023/06/14 10:36:37;;;;;;;5.47;2.10;;;;;;;24.49;47.64;101411.41;5155883;27;20446;-68
2023/06/14 10:39:08;;;;;;;7.73;1.50;;;;;;;24.63;48.67;101409.63;5155537;27;20453;-69
2023/06/14 10:41:37;;;;;;;5.20;1.60;;;;;;;24.69;48.27;101404.53;5155750;27;20477;-68
2023/06/14 10:44:36;;;;;;;6.30;2.10;;;;;;;24.72;47.94;101405.75;5155870;27;20572;-68
2023/06/14 10:47:08;;;;;;;7.50;1.77;;;;;;;24.71;46.87;101407.72;5147399;27;20454;-68
2023/06/14 10:49:41;;;;;;;6.40;2.30;;;;;;;24.63;46.39;101417.94;5155674;27;20525;-69
2023/06/14 10:52:16;;;;;;;6.33;1.90;;;;;;;24.53;47.87;101413.06;5155249;27;20451;-70
2023/06/14 10:55:05;;;;;;;5.60;2.00;;;;;;;24.57;47.46;101402.00;5155296;27;20875;-69
2023/06/14 10:57:33;;;;;;;5.53;2.07;;;;;;;24.63;46.67;101403.28;5155396;27;20490;-69
2023/06/14 11:00:00;;;;;;;7.10;2.10;;;;;;;24.71;45.82;101393.09;5154791;27;20434;-69
2023/06/14 11:03:04;;;;;;;5.90;2.30;;;;;;;24.56;45.58;101395.66;5155550;27;20481;-69
2023/06/14 11:05:49;;;;;;;6.17;2.00;;;;;;;24.65;45.48;101395.38;5155108;27;20536;-68
2023/06/14 11:08:28;;;;;;;7.57;2.03;;;;;;;24.80;46.85;101388.84;5155335;27;20475;-68
2023/06/14 11:11:00;;;;;;;7.03;2.50;;;;;;;24.99;45.94;101382.31;5155126;27;20904;-68
2023/06/14 11:13:28;;;;;;;6.80;1.87;;;;;;;25.14;46.02;101384.06;5155303;27;20417;-68
2023/06/14 11:15:57;;;;;;;6.30;2.03;;;;;;;25.37;45.58;101385.88;5154918;27;20984;-69
2023/06/14 11:18:25;;;;;;;6.73;2.40;;;;;;;25.58;45.30;101377.72;5155123;27;20438;-69
2023/06/14 11:20:53;;;;;;;7.67;1.70;;;;;;;25.73;43.04;101377.84;5154917;27;20448;-69
2023/06/14 11:23:19;;;;;;;6.57;1.70;;;;;;;26.21;43.37;101380.53;5155139;27;20442;-69
2023/06/14 11:25:51;;;;;;;5.43;1.60;;;;;;;26.47;42.78;101373.94;5155107;27;20468;-70
2023/06/14 11:28:19;;;;;;;7.37;1.97;;;;;;;26.69;42.21;101378.38;5154901;27;20510;-69